createdAt,value
2022-10-12T00:01:02.904Z,97215.97
2022-10-12T00:03:31.126Z,97264.81
2022-10-12T00:06:05.415Z,97255.22
2022-10-12T00:08:34.614Z,97202.13
2022-10-12T00:11:03.045Z,97191.63
2022-10-12T00:13:32.890Z,97214.31
2022-10-12T00:16:04.524Z,97233.16
2022-10-12T00:18:33.078Z,97083.66
2022-10-12T00:21:05.718Z,97367.63
2022-10-12T00:23:35.406Z,97237.69
2022-10-12T00:26:06.615Z,97298.09
2022-10-12T00:28:37.368Z,97218.03
2022-10-12T00:31:09.806Z,97203.03
2022-10-12T00:33:39.088Z,97223.00
2022-10-12T00:36:19.455Z,97218.38
2022-10-12T00:38:48.752Z,97215.47
2022-10-12T00:41:20.105Z,97247.84
2022-10-12T00:43:55.424Z,97216.28
2022-10-12T00:46:34.672Z,97243.38
2022-10-12T00:49:11.555Z,97208.22
2022-10-12T00:51:41.310Z,97242.81
2022-10-12T00:54:14.286Z,97229.19
2022-10-12T00:56:46.099Z,97164.34
2022-10-12T00:59:23.892Z,97234.16
2022-10-12T01:01:52.166Z,97231.69
2022-10-12T01:04:20.603Z,97240.34
2022-10-12T01:06:48.862Z,97172.66
2022-10-12T01:09:17.570Z,97243.97
2022-10-12T01:11:45.749Z,97236.31
2022-10-12T01:14:15.560Z,97220.38
2022-10-12T01:16:53.586Z,97242.25
2022-10-12T01:20:12.669Z,97227.97
2022-10-12T01:22:48.419Z,97215.72
2022-10-12T01:25:34.737Z,97150.22
2022-10-12T01:28:14.891Z,97181.00
2022-10-12T01:30:49.890Z,97171.25
2022-10-12T01:33:29.683Z,97277.19
2022-10-12T01:36:08.000Z,97202.31
2022-10-12T01:38:49.292Z,97207.84
2022-10-12T01:41:22.002Z,97210.44
2022-10-12T01:43:53.108Z,97220.31
2022-10-12T01:46:46.116Z,97211.72
2022-10-12T01:49:18.395Z,97147.25
2022-10-12T01:52:20.396Z,97195.22
2022-10-12T01:55:25.899Z,97192.19
2022-10-12T01:58:19.217Z,97221.19
2022-10-12T02:01:00.432Z,97152.88
2022-10-12T02:03:38.780Z,97201.66
2022-10-12T02:06:11.101Z,97212.09
2022-10-12T02:08:47.738Z,97190.06
2022-10-12T02:11:19.674Z,97222.00
2022-10-12T02:13:53.851Z,97199.75
2022-10-12T02:16:27.011Z,97182.59
2022-10-12T02:18:58.867Z,97232.69
2022-10-12T02:21:32.841Z,97204.78
2022-10-12T02:24:05.464Z,97240.16
2022-10-12T02:26:36.762Z,97169.72
2022-10-12T02:29:14.765Z,97207.13
2022-10-12T02:31:53.308Z,97187.78
2022-10-12T02:34:26.866Z,97132.78
2022-10-12T02:37:05.825Z,97216.97
2022-10-12T02:39:40.679Z,97201.28
2022-10-12T02:42:13.605Z,97149.31
2022-10-12T02:44:44.138Z,97165.63
2022-10-12T02:47:14.193Z,97156.06
2022-10-12T02:49:46.020Z,97211.06
2022-10-12T02:52:14.317Z,97173.41
2022-10-12T02:54:42.689Z,97178.16
2022-10-12T02:57:10.989Z,97179.84
2022-10-12T02:59:39.294Z,97208.88
2022-10-12T03:02:08.897Z,97212.03
2022-10-12T03:04:37.303Z,97178.06
2022-10-12T03:07:06.983Z,97231.91
2022-10-12T03:09:35.269Z,97138.13
2022-10-12T03:12:03.547Z,97183.25
2022-10-12T03:14:33.184Z,97175.09
2022-10-12T03:17:01.789Z,97205.09
2022-10-12T03:19:30.059Z,97167.91
2022-10-12T03:21:58.311Z,97137.09
2022-10-12T03:24:27.964Z,97240.81
2022-10-12T03:26:56.186Z,97184.13
2022-10-12T03:29:24.451Z,97201.81
2022-10-12T03:31:52.708Z,97182.50
2022-10-12T03:34:20.998Z,97176.94
2022-10-12T03:36:49.259Z,97183.06
2022-10-12T03:39:17.534Z,97198.81
2022-10-12T03:41:47.148Z,97211.53
2022-10-12T03:44:15.396Z,97160.00
2022-10-12T03:46:43.697Z,97208.19
2022-10-12T03:49:11.971Z,97190.53
2022-10-12T03:51:40.208Z,97180.03
2022-10-12T03:54:08.449Z,97201.97
2022-10-12T03:56:36.713Z,97240.78
2022-10-12T03:59:06.802Z,97237.34
2022-10-12T04:01:35.158Z,97169.25
2022-10-12T04:04:03.493Z,97227.53
2022-10-12T04:06:31.735Z,97141.88
2022-10-12T04:09:00.016Z,97213.16
2022-10-12T04:11:28.680Z,97219.16
2022-10-12T04:13:56.911Z,97203.41
2022-10-12T04:16:28.833Z,97200.47
2022-10-12T04:18:59.346Z,97210.16
2022-10-12T04:21:30.142Z,97171.84
2022-10-12T04:23:58.471Z,97212.38
2022-10-12T04:26:26.739Z,97186.13
2022-10-12T04:28:55.017Z,97180.44
2022-10-12T04:31:23.362Z,97181.38
2022-10-12T04:33:56.909Z,97172.84
2022-10-12T04:36:25.634Z,97191.09
2022-10-12T04:38:58.390Z,97234.22
2022-10-12T04:41:29.438Z,97205.47
2022-10-12T04:43:57.734Z,97183.06
2022-10-12T04:46:26.070Z,97170.63
2022-10-12T04:48:55.737Z,97191.22
2022-10-12T04:51:24.816Z,97246.09
2022-10-12T04:53:53.129Z,97196.59
2022-10-12T04:56:21.400Z,97203.09
2022-10-12T04:58:49.709Z,97212.63
2022-10-12T05:01:18.007Z,97201.59
2022-10-12T05:03:46.418Z,97215.38
2022-10-12T05:06:16.103Z,97187.72
2022-10-12T05:08:44.394Z,97212.91
2022-10-12T05:11:12.779Z,97211.53
2022-10-12T05:13:41.068Z,97198.13
2022-10-12T05:16:09.410Z,97200.75
2022-10-12T05:18:37.662Z,97204.00
2022-10-12T05:21:06.209Z,97184.41
2022-10-12T05:23:35.823Z,97238.88
2022-10-12T05:26:04.423Z,97203.22
2022-10-12T05:28:37.011Z,97224.22
2022-10-12T05:31:08.263Z,97200.72
2022-10-12T05:33:36.565Z,97189.91
2022-10-12T05:36:05.434Z,97204.72
2022-10-12T05:38:35.073Z,97170.94
2022-10-12T05:41:03.357Z,97234.97
2022-10-12T05:43:31.633Z,97224.06
2022-10-12T05:45:59.883Z,97215.31
2022-10-12T05:48:28.114Z,97189.44
2022-10-12T05:50:56.736Z,97190.81
2022-10-12T05:53:25.727Z,97223.44
2022-10-12T05:55:57.186Z,97264.38
2022-10-12T05:58:26.354Z,97218.88
2022-10-12T06:00:55.344Z,97270.88
2022-10-12T06:03:26.188Z,97218.31
2022-10-12T06:05:56.824Z,97256.88
2022-10-12T06:08:25.079Z,97263.66
2022-10-12T06:10:54.954Z,97244.28
2022-10-12T06:13:23.736Z,97230.19
2022-10-12T06:15:52.402Z,97268.66
2022-10-12T06:18:21.423Z,97250.53
2022-10-12T06:20:56.517Z,97236.72
2022-10-12T06:23:37.284Z,97187.59
2022-10-12T06:26:07.290Z,97295.59
2022-10-12T06:28:35.622Z,97203.03
2022-10-12T06:31:03.927Z,97263.09
2022-10-12T06:33:32.165Z,97225.16
2022-10-12T06:36:00.417Z,97242.56
2022-10-12T06:38:54.039Z,97255.88
2022-10-12T06:41:23.684Z,97244.72
2022-10-12T06:43:51.944Z,97303.56
2022-10-12T06:46:20.210Z,97242.28
2022-10-12T06:48:48.517Z,97249.00
2022-10-12T06:51:16.784Z,97248.91
2022-10-12T06:53:45.044Z,97193.00
2022-10-12T06:56:13.798Z,97254.00
2022-10-12T06:58:43.422Z,97231.09
2022-10-12T07:01:11.753Z,97243.84
2022-10-12T07:03:40.213Z,97229.75
2022-10-12T07:06:11.580Z,97213.34
2022-10-12T07:08:41.168Z,97217.72
2022-10-12T07:11:15.082Z,97266.84
2022-10-12T07:13:44.629Z,97158.78
2022-10-12T07:16:12.917Z,97194.63
2022-10-12T07:18:41.168Z,97190.16
2022-10-12T07:21:09.532Z,97248.22
2022-10-12T07:23:42.523Z,97218.69
2022-10-12T07:26:14.076Z,97224.03
2022-10-12T07:28:42.360Z,97267.00
2022-10-12T07:31:12.257Z,97305.66
2022-10-12T07:33:40.552Z,97299.31
2022-10-12T07:36:14.423Z,97267.47
2022-10-12T07:38:45.772Z,97244.59
2022-10-12T07:41:14.673Z,97283.00
2022-10-12T07:43:43.528Z,97265.75
2022-10-12T07:46:13.533Z,97196.41
2022-10-12T07:48:45.914Z,97216.56
2022-10-12T07:51:15.796Z,97223.13
2022-10-12T07:53:44.095Z,97310.34
2022-10-12T07:56:15.935Z,97250.81
2022-10-12T07:58:44.945Z,97275.13
2022-10-12T08:01:14.601Z,97282.28
2022-10-12T08:03:49.086Z,97265.38
2022-10-12T08:06:21.283Z,97212.47
2022-10-12T08:08:50.472Z,97207.34
2022-10-12T08:11:20.336Z,97268.47
2022-10-12T08:13:49.328Z,97290.63
2022-10-12T08:16:21.805Z,97204.88
2022-10-12T08:18:50.339Z,97218.97
2022-10-12T08:21:19.137Z,97250.72
2022-10-12T08:23:47.693Z,97293.81
2022-10-12T08:26:16.911Z,97264.06
2022-10-12T08:28:45.377Z,97277.50
2022-10-12T08:31:16.495Z,97251.19
2022-10-12T08:33:46.230Z,97233.41
2022-10-12T08:36:15.133Z,97177.88
2022-10-12T08:38:44.389Z,97209.03
2022-10-12T08:41:41.046Z,97257.44
2022-10-12T08:44:52.346Z,97276.28
2022-10-12T08:47:28.520Z,97281.41
2022-10-12T08:50:00.280Z,97219.47
2022-10-12T08:52:59.253Z,97249.88
2022-10-12T08:55:37.239Z,97269.50
2022-10-12T08:58:12.196Z,97249.34
2022-10-12T09:00:40.557Z,97265.88
2022-10-12T09:03:20.197Z,97244.88
2022-10-12T09:05:56.571Z,97265.16
2022-10-12T09:08:35.528Z,97249.31
2022-10-12T09:11:21.892Z,97232.44
2022-10-12T09:14:04.662Z,97284.31
2022-10-12T09:16:37.394Z,97262.56
2022-10-12T09:19:14.740Z,97175.72
2022-10-12T09:21:46.042Z,97268.88
2022-10-12T09:24:20.440Z,97259.00
2022-10-12T09:26:53.908Z,97257.34
2022-10-12T09:29:26.688Z,97254.72
2022-10-12T09:32:29.434Z,97190.63
2022-10-12T09:34:58.006Z,97255.41
2022-10-12T09:37:31.757Z,97222.66
2022-10-12T09:40:00.558Z,97251.59
2022-10-12T09:42:28.851Z,97250.44
2022-10-12T09:45:05.171Z,97242.50
2022-10-12T09:47:34.753Z,97253.25
2022-10-12T09:50:06.827Z,97228.78
2022-10-12T09:52:44.494Z,97273.44
2022-10-12T09:58:02.689Z,97242.66
2022-10-12T10:00:33.915Z,97244.78
2022-10-12T10:03:04.164Z,97264.00
2022-10-12T10:05:34.891Z,97217.94
2022-10-12T10:08:20.960Z,97262.31
2022-10-12T10:10:51.966Z,97293.25
2022-10-12T10:13:22.006Z,97259.50
2022-10-12T10:15:53.461Z,97245.59
2022-10-12T10:18:35.254Z,97263.63
2022-10-12T10:21:06.483Z,97209.50
2022-10-12T10:23:44.317Z,97206.31
2022-10-12T10:26:19.395Z,97217.53
2022-10-12T10:28:49.565Z,97249.00
2022-10-12T10:31:23.163Z,97265.59
2022-10-12T10:34:13.028Z,97238.41
2022-10-12T10:36:46.638Z,97239.53
2022-10-12T10:39:22.404Z,97263.56
2022-10-12T10:41:51.841Z,97215.16
2022-10-12T10:44:30.893Z,97258.34
2022-10-12T10:47:03.699Z,97218.03
2022-10-12T10:49:41.560Z,97203.31
2022-10-12T10:52:24.564Z,97242.53
2022-10-12T10:55:18.723Z,97250.81
2022-10-12T10:57:58.071Z,97274.47
2022-10-12T11:00:38.396Z,97285.53
2022-10-12T11:03:14.796Z,97256.69
2022-10-12T11:05:48.266Z,97251.34
2022-10-12T11:08:23.316Z,97258.31
2022-10-12T11:11:00.408Z,97254.97
2022-10-12T11:13:35.547Z,97174.53
2022-10-12T11:16:12.251Z,97240.09
2022-10-12T11:18:46.398Z,97216.47
2022-10-12T11:21:21.359Z,97231.03
2022-10-12T11:23:54.425Z,97211.00
2022-10-12T11:26:30.652Z,97140.72
2022-10-12T11:29:01.302Z,97206.69
2022-10-12T11:31:35.188Z,97211.34
2022-10-12T11:34:12.631Z,97193.75
2022-10-12T11:37:07.529Z,97203.00
2022-10-12T11:39:38.125Z,97173.25
2022-10-12T11:42:22.152Z,97228.41
2022-10-12T11:44:51.806Z,97210.28
2022-10-12T11:47:33.082Z,97180.06
2022-10-12T11:50:05.210Z,97207.53
2022-10-12T11:52:46.685Z,97229.41
2022-10-12T11:55:48.081Z,97194.81
2022-10-12T11:58:36.352Z,97191.59
2022-10-12T12:01:44.928Z,97151.53
2022-10-12T12:04:43.355Z,97251.50
2022-10-12T12:07:44.279Z,97209.78
2022-10-12T12:11:06.367Z,97185.06
2022-10-12T12:13:36.028Z,97217.94
2022-10-12T12:16:34.558Z,97196.41
2022-10-12T12:19:33.845Z,97180.75
2022-10-12T12:22:33.207Z,97162.75
2022-10-12T12:25:35.435Z,97167.69
2022-10-12T12:28:20.749Z,97187.75
2022-10-12T12:31:01.571Z,97131.97
2022-10-12T12:33:32.953Z,97183.44
2022-10-12T12:36:04.293Z,96993.44
2022-10-12T12:38:34.613Z,97170.59
2022-10-12T12:41:08.517Z,97192.06
2022-10-12T12:43:52.333Z,97198.75
2022-10-12T12:46:22.186Z,97163.22
2022-10-12T12:49:05.244Z,97154.09
2022-10-12T12:51:43.863Z,97131.44
2022-10-12T12:54:23.272Z,97163.94
2022-10-12T12:57:28.407Z,97162.03
2022-10-12T13:00:16.506Z,97023.84
2022-10-12T13:03:49.844Z,97184.56
2022-10-12T13:07:24.195Z,97144.16
2022-10-12T13:10:20.503Z,97146.16
2022-10-12T13:13:07.165Z,97122.81
2022-10-12T13:15:59.442Z,97133.25
2022-10-12T13:18:52.726Z,97155.41
2022-10-12T13:21:24.768Z,97153.88
2022-10-12T13:24:03.328Z,97127.03
2022-10-12T13:26:33.251Z,97153.03
2022-10-12T13:29:03.920Z,97171.44
2022-10-12T13:31:39.216Z,97138.25
2022-10-12T13:34:17.950Z,97145.84
2022-10-12T13:36:55.459Z,97104.41
2022-10-12T13:39:24.099Z,97100.53
2022-10-12T13:41:56.112Z,97143.69
2022-10-12T13:44:27.525Z,97141.38
2022-10-12T13:46:59.220Z,97135.94
2022-10-12T13:49:32.408Z,97123.63
2022-10-12T13:52:03.112Z,97146.94
2022-10-12T13:54:39.800Z,97116.44
2022-10-12T13:57:19.720Z,97077.50
2022-10-12T13:59:52.551Z,97115.34
2022-10-12T14:02:26.176Z,97045.91
2022-10-12T14:04:57.766Z,97112.72
2022-10-12T14:07:30.890Z,97106.66
2022-10-12T14:10:05.421Z,97016.38
2022-10-12T14:12:35.792Z,97098.47
2022-10-12T14:15:06.929Z,97099.50
2022-10-12T14:17:35.178Z,97051.78
2022-10-12T14:20:19.851Z,97106.97
2022-10-12T14:22:50.082Z,97118.34
2022-10-12T14:25:21.908Z,97118.78
2022-10-12T14:27:57.132Z,97092.75
2022-10-12T14:30:29.771Z,97128.03
2022-10-12T14:33:12.995Z,97071.03
2022-10-12T14:35:46.708Z,97104.91
2022-10-12T14:38:39.784Z,97151.59
2022-10-12T14:41:35.352Z,97096.38
2022-10-12T14:44:12.159Z,97107.88
2022-10-12T14:46:43.166Z,97038.81
2022-10-12T14:49:18.455Z,97108.22
2022-10-12T14:51:49.749Z,97100.72
2022-10-12T14:54:18.064Z,97114.50
2022-10-12T14:56:46.423Z,97068.09
2022-10-12T14:59:14.757Z,97132.56
2022-10-12T15:01:46.309Z,97084.09
2022-10-12T15:04:18.591Z,97063.38
2022-10-12T15:06:50.853Z,97080.84
2022-10-12T15:09:19.591Z,97045.06
2022-10-12T15:11:47.842Z,97107.72
2022-10-12T15:14:16.153Z,97151.63
2022-10-12T15:16:44.396Z,97088.94
2022-10-12T15:19:12.664Z,97063.84
2022-10-12T15:21:42.056Z,97017.72
2022-10-12T15:24:16.318Z,97066.78
2022-10-12T15:26:44.551Z,97063.94
2022-10-12T15:29:12.833Z,97066.09
2022-10-12T15:31:41.087Z,97066.94
2022-10-12T15:34:13.447Z,97061.22
2022-10-12T15:36:42.090Z,97065.03
2022-10-12T15:39:10.801Z,97039.28
2022-10-12T15:41:40.387Z,97010.41
2022-10-12T15:44:10.997Z,97075.91
2022-10-12T15:46:39.473Z,97077.91
2022-10-12T15:49:08.295Z,97054.91
2022-10-12T15:51:41.463Z,97001.38
2022-10-12T15:54:10.808Z,97062.59
2022-10-12T15:56:40.672Z,97107.25
2022-10-12T15:59:08.963Z,97049.78
2022-10-12T16:01:38.586Z,97046.78
2022-10-12T16:04:08.006Z,97019.72
2022-10-12T16:06:36.649Z,97080.28
2022-10-12T16:09:04.994Z,97058.91
2022-10-12T16:11:33.213Z,97044.91
2022-10-12T16:14:02.923Z,97112.06
2022-10-12T16:16:32.276Z,97082.75
2022-10-12T16:19:00.656Z,97045.41
2022-10-12T16:21:28.946Z,97090.97
2022-10-12T16:23:57.277Z,97068.84
2022-10-12T16:26:27.268Z,97051.63
2022-10-12T16:28:55.581Z,97086.03
2022-10-12T16:31:25.303Z,97077.75
2022-10-12T16:33:53.564Z,97074.00
2022-10-12T16:36:21.851Z,97065.28
2022-10-12T16:38:50.121Z,97094.41
2022-10-12T16:41:18.759Z,97216.19
2022-10-12T16:43:47.080Z,97094.72
2022-10-12T16:46:15.369Z,97001.28
2022-10-12T16:48:45.128Z,97116.88
2022-10-12T16:51:14.495Z,97044.69
2022-10-12T16:53:43.936Z,97099.75
2022-10-12T16:56:12.307Z,97106.88
2022-10-12T16:58:40.557Z,97072.03
2022-10-12T17:01:11.190Z,97116.88
2022-10-12T17:03:39.523Z,97084.56
2022-10-12T17:06:10.695Z,97118.13
2022-10-12T17:08:39.875Z,97127.81
2022-10-12T17:11:09.424Z,97112.44
2022-10-12T17:13:38.861Z,97124.44
2022-10-12T17:16:34.828Z,97155.59
2022-10-12T17:19:03.656Z,97446.69
2022-10-12T17:21:33.482Z,97122.66
2022-10-12T17:24:02.631Z,97062.50
2022-10-12T17:26:31.512Z,97136.97
2022-10-12T17:28:59.781Z,97107.50
2022-10-12T17:31:28.703Z,97146.41
2022-10-12T17:33:58.214Z,97138.69
2022-10-12T17:36:28.380Z,97117.66
2022-10-12T17:39:00.239Z,97000.84
2022-10-12T17:41:30.037Z,97129.47
2022-10-12T17:43:58.955Z,97154.63
2022-10-12T17:46:28.087Z,97109.81
2022-10-12T17:48:57.545Z,97142.84
2022-10-12T17:51:25.929Z,97096.09
2022-10-12T17:53:54.465Z,97118.00
2022-10-12T17:56:24.203Z,97114.47
2022-10-12T17:58:55.867Z,97118.34
2022-10-12T18:01:25.099Z,97099.88
2022-10-12T18:04:06.432Z,97121.94
2022-10-12T18:06:35.429Z,97089.03
2022-10-12T18:09:05.746Z,97094.53
2022-10-12T18:11:36.727Z,97095.56
2022-10-12T18:14:05.051Z,97075.84
2022-10-12T18:16:35.392Z,97086.22
2022-10-12T18:19:05.282Z,97116.38
2022-10-12T18:21:34.795Z,97125.69
2022-10-12T18:24:05.326Z,97138.25
2022-10-12T18:26:35.028Z,97124.38
2022-10-12T18:29:05.172Z,97119.25
2022-10-12T18:31:33.376Z,97123.72
2022-10-12T18:34:02.719Z,97125.69
2022-10-12T18:36:30.965Z,97173.03
2022-10-12T18:39:02.320Z,97150.22
2022-10-12T18:41:31.271Z,97122.13
2022-10-12T18:44:02.626Z,97097.66
2022-10-12T18:46:33.923Z,97151.91
2022-10-12T18:49:05.266Z,97123.66
2022-10-12T18:51:35.582Z,97166.50
2022-10-12T18:54:05.933Z,97164.66
2022-10-12T18:56:37.179Z,97112.59
2022-10-12T18:59:07.915Z,97132.09
2022-10-12T19:01:36.470Z,97159.56
2022-10-12T19:04:06.753Z,97149.00
2022-10-12T19:06:37.501Z,97148.00
2022-10-12T19:09:06.851Z,97136.78
2022-10-12T19:11:36.803Z,97157.91
2022-10-12T19:14:09.050Z,97139.09
2022-10-12T19:16:37.469Z,97135.94
2022-10-12T19:19:08.666Z,97161.53
2022-10-12T19:21:36.917Z,97133.44
2022-10-12T19:24:10.518Z,97105.41
2022-10-12T19:26:38.820Z,97148.53
2022-10-12T19:29:08.579Z,97134.16
2022-10-12T19:31:39.249Z,97152.13
2022-10-12T19:34:11.008Z,97138.94
2022-10-12T19:36:40.272Z,97118.78
2022-10-12T19:39:10.868Z,97134.56
2022-10-12T19:41:39.627Z,97137.84
2022-10-12T19:44:09.539Z,97138.03
2022-10-12T19:46:37.856Z,97150.00
2022-10-12T19:49:06.702Z,96961.16
2022-10-12T19:51:35.036Z,97122.06
2022-10-12T19:54:05.171Z,97128.16
2022-10-12T19:56:34.626Z,97122.88
2022-10-12T19:59:03.034Z,97131.38
2022-10-12T20:01:36.791Z,97143.25
2022-10-12T20:04:09.898Z,97129.34
2022-10-12T20:06:44.018Z,97137.81
2022-10-12T20:09:12.352Z,97150.66
2022-10-12T20:11:40.931Z,97122.00
2022-10-12T20:14:09.565Z,97120.50
2022-10-12T20:16:39.205Z,97148.97
2022-10-12T20:19:08.077Z,97158.47
2022-10-12T20:21:37.477Z,97098.38
2022-10-12T20:24:09.711Z,97134.41
2022-10-12T20:26:37.932Z,97158.19
2022-10-12T20:29:06.249Z,97103.13
2022-10-12T20:31:34.519Z,97103.03
2022-10-12T20:34:04.266Z,97138.53
2022-10-12T20:36:32.892Z,97124.41
2022-10-12T20:39:01.775Z,97073.13
2022-10-12T20:41:30.041Z,97114.25
2022-10-12T20:44:00.298Z,97106.41
2022-10-12T20:46:30.078Z,97140.50
2022-10-12T20:49:01.122Z,97139.22
2022-10-12T20:51:34.004Z,97174.59
2022-10-12T20:54:04.125Z,97122.13
2022-10-12T20:56:34.207Z,97111.84
2022-10-12T20:59:03.117Z,97172.00
2022-10-12T21:01:31.386Z,97100.03
2022-10-12T21:03:59.719Z,97088.53
2022-10-12T21:06:28.798Z,97122.97
2022-10-12T21:08:59.211Z,97156.44
2022-10-12T21:11:27.594Z,97122.81
2022-10-12T21:13:56.955Z,97123.28
2022-10-12T21:16:27.043Z,97129.88
2022-10-12T21:18:56.312Z,97099.75
2022-10-12T21:21:25.063Z,97138.28
2022-10-12T21:23:55.732Z,97136.25
2022-10-12T21:26:27.668Z,97108.28
2022-10-12T21:28:56.387Z,97144.28
2022-10-12T21:31:29.517Z,97137.06
2022-10-12T21:34:01.129Z,97121.88
2022-10-12T21:36:30.808Z,97115.66
2022-10-12T21:38:59.400Z,97115.66
2022-10-12T21:41:31.194Z,97082.81
2022-10-12T21:43:59.769Z,97121.56
2022-10-12T21:46:30.484Z,97107.56
2022-10-12T21:49:00.636Z,97096.75
2022-10-12T21:51:31.048Z,97102.63
2022-10-12T21:53:59.488Z,97140.78
2022-10-12T21:56:32.158Z,97067.44
2022-10-12T21:59:02.610Z,97067.47
2022-10-12T22:01:34.713Z,97125.34
2022-10-12T22:04:11.011Z,97050.28
2022-10-12T22:06:39.320Z,97120.13
2022-10-12T22:09:10.704Z,97106.88
2022-10-12T22:11:40.447Z,97117.47
2022-10-12T22:14:15.946Z,97140.25
2022-10-12T22:16:44.897Z,97099.78
2022-10-12T22:19:18.817Z,97048.47
2022-10-12T22:21:48.460Z,97146.47
2022-10-12T22:24:17.206Z,97110.16
2022-10-12T22:26:46.909Z,97165.56
2022-10-12T22:29:15.239Z,97081.94
2022-10-12T22:31:44.441Z,97126.31
2022-10-12T22:34:13.111Z,97069.38
2022-10-12T22:36:41.404Z,97086.81
2022-10-12T22:39:09.791Z,97084.75
2022-10-12T22:41:37.998Z,97114.34
2022-10-12T22:44:07.735Z,97066.84
2022-10-12T22:46:36.410Z,97109.13
2022-10-12T22:49:04.916Z,97063.94
2022-10-12T22:51:35.405Z,97073.34
2022-10-12T22:54:04.512Z,97089.38
2022-10-12T22:56:32.908Z,97081.41
2022-10-12T22:59:06.594Z,97052.91
2022-10-12T23:01:36.877Z,97081.66
2022-10-12T23:04:05.640Z,97118.94
2022-10-12T23:06:34.093Z,97117.44
2022-10-12T23:09:02.752Z,97065.13
2022-10-12T23:11:31.647Z,97117.03
2022-10-12T23:13:59.944Z,97128.63
2022-10-12T23:16:31.382Z,97086.09
2022-10-12T23:19:03.045Z,97090.66
2022-10-12T23:21:33.761Z,97116.50
2022-10-12T23:24:04.975Z,97084.47
2022-10-12T23:26:33.833Z,97106.00
2022-10-12T23:29:02.093Z,97089.41
2022-10-12T23:31:31.602Z,97132.63
2022-10-12T23:34:06.811Z,97103.91
2022-10-12T23:36:35.757Z,97062.63
2022-10-12T23:39:05.980Z,97112.72
2022-10-12T23:41:34.708Z,97083.19
2022-10-12T23:44:03.114Z,97052.25
2022-10-12T23:46:31.515Z,97093.50
2022-10-12T23:49:00.119Z,97094.66
2022-10-12T23:51:29.733Z,97078.75
2022-10-12T23:53:58.046Z,97065.66
2022-10-12T23:56:26.359Z,97128.59
2022-10-12T23:58:54.787Z,97084.69
